Carson Sink, Nevada Weather observations

Data are for observation ending at time listed.
 Day   Time    Ave.   Ave.  Ave.  Vector   Max.   Stn.    Total    Solar   Ave.  
  of    of     Air    Rel.  Wind   Wind    Wind   Baro.  Precip.   Rad.    Soil  
Year   Day     Temp.  Hum.  Speed  Dir.    Gust   Pres.                    Temp. 
2016   (PST)    F      %     mph   deg.    mph     mb.     in.     W/m2     F   
------------------------------------------------------------------------------
 241    0:30   70.1    14    9.0   213     11.1   883.3    0.00       0     84.2
 241    0:40   69.1    14    8.8   215     11.2   883.3    0.00       0     84.0
 241    0:50   68.9    15    9.0   222     13.2   883.3    0.00       0     83.9
 241    1:00   68.4    15    7.8   218      9.1   883.4    0.00       0     83.7
 241    1:10   67.8    16    8.1   216      8.8   883.5    0.00       0     83.6
 241    1:20   67.3    16    6.9   244      8.6   883.6    0.00       0     83.4
 241    1:30   66.8    16    4.9   242      7.2   883.8    0.00       0     83.3
 241    1:40   66.6    16    5.9   226      7.3   884.0    0.00       0     83.1
 241    1:50   65.9    17    6.6   235      8.0   883.9    0.00       0     83.0
 241    2:00   64.9    17    5.4   239      6.9   884.0    0.00       0     82.8
 241    2:10   64.0    19    6.6   221      7.7   884.1    0.00       0     82.7
 241    2:20   63.1    20    6.1   222      7.2   884.2    0.00       0     82.5
 241    2:30   62.7    20    2.2   184      5.8   884.3    0.00       0     82.4
 241    2:40   62.2    20    2.3   193      5.2   884.4    0.00       0     82.2
 241    2:50   62.2    20    7.8   222     11.2   884.3    0.00       0     82.0
 241    3:00   62.3    20    7.5   213     11.3   884.4    0.00       0     81.9
 241    3:10   61.1    21    4.3   166      6.1   884.5    0.00       0     81.8
 241    3:20   60.9    23    4.4   182      7.2   884.5    0.00       0     81.6
 241    3:30   60.6    24    5.5   159      6.9   884.6    0.00       0     81.4
 241    3:40   59.8    25    5.0   158      6.6   884.7    0.00       0     81.3
 241    3:50   60.4    24    4.1   175      6.5   884.7    0.00       0     81.1
 241    4:00   60.1    25    2.7   156      3.7   884.8    0.00       0     81.0
 241    4:10   59.6    25    2.1   319      4.2   884.9    0.00       0     80.8
 241    4:20   60.2    25    1.8   244      2.5   885.0    0.00       0     80.6
 241    4:30   60.4    24    1.2   242      2.1   885.1    0.00       0     80.5
 241    4:40   60.5    24    1.0   234      2.2   885.1    0.00       0     80.3
 241    4:50   60.5    24    3.1   222      4.9   885.1    0.00       0     80.2
 241    5:00   59.7    24    4.1   275      5.0   885.1    0.00       0     80.1
 241    5:10   60.0    24    3.3   295      4.2   885.2    0.00       1     79.9
 241    5:20   58.6    25    4.5   332      5.2   885.4    0.00       2     79.8
 241    5:30   59.0    25    3.9   311      5.0   885.5    0.00       7     79.6
 241    5:40   58.8    25    3.9   327      5.5   885.7    0.00      25     79.4
 241    5:50   57.2    26    5.0   351      6.0   885.8    0.00      60     79.3
 241    6:00   57.7    26    3.7   349      4.7   885.8    0.00      92     79.1
 241    6:10   58.4    26    3.8     2      5.6   885.9    0.00     123     79.0
 241    6:20   58.9    25    4.7    28      6.2   886.1    0.00     157     78.9
 241    6:30   59.6    24    4.0    37      5.8   886.2    0.00     189     78.7
 241    6:40   61.1    23    3.0    55      3.8   886.3    0.00     221     78.6
 241    6:50   62.6    22    3.9    56      4.7   886.4    0.00     256     78.5
 241    7:00   64.0    21    2.9    68      3.5   886.5    0.00     289     78.4
 241    7:10   65.6    20    2.7    66      3.9   886.6    0.00     322     78.3
 241    7:20   67.0    20    3.3    74      4.5   886.6    0.00     354     78.2
 241    7:30   68.0    20    2.7    75      4.3   886.7    0.00     387     78.1
 241    7:40   69.3    20    1.8   110      3.3   886.7    0.00     418     78.1
 241    7:50   70.6    19    1.6   131      3.7   886.8    0.00     448     78.1
 241    8:00   70.5    19    2.6   133      4.1   886.8    0.00     478     78.0
 241    8:10   71.3    19    2.2   167      4.9   886.8    0.00     510     78.1
 241    8:20   72.4    18    2.9   172      5.8   886.9    0.00     540     78.1
 241    8:30   73.3    18    1.7   177      5.3   886.9    0.00     570     78.2
 241    8:40   73.9    17    2.1   161      5.2   887.0    0.00     597     78.3
 241    8:50   75.0    16    2.4   180      4.2   887.1    0.00     624     78.4
 241    9:00   75.5    16    3.3   201      5.5   887.1    0.00     649     78.5
 241    9:10   76.4    16    2.3   215      4.5   887.2    0.00     674     78.7
 241    9:20   78.0    15    2.3   191      5.0   887.1    0.00     696     78.9
 241    9:30   78.4    15    2.6   210      5.6   887.1    0.00     721     79.1
 241    9:40   79.1    15    2.3   203      7.6   887.1    0.00     740     79.4
 241    9:50   79.9    14    4.4   213      8.2   887.0    0.00     761     79.6
 241   10:00   80.3    14    4.4   213      8.1   887.0    0.00     781     79.9
 241   10:10   80.0    15    5.4   235      9.5   886.9    0.00     799     80.2
 241   10:20   80.8    14    4.5   228      9.1   886.8    0.00     815     80.5
 241   10:30   81.5    14    4.9   226      8.6   886.7    0.00     829     80.8
 241   10:40   82.3    14    3.9   254      7.4   886.7    0.00     841     81.2
 241   10:50   82.8    14    3.9   251      8.1   886.7    0.00     853     81.5
 241   11:00   83.6    12    3.2   199      8.3   886.6    0.00     862     81.9
 241   11:10   83.9    12    3.2   210      8.4   886.5    0.00     869     82.2
 241   11:20   85.3    11    4.8   228     11.8   886.4    0.00     874     82.6
 241   11:30   85.9    10    5.7   220     11.2   886.4    0.00     877     83.0
 241   11:40   85.9    10    4.5   216     12.0   886.2    0.00     880     83.4
 241   11:50   86.4     8    5.0   252     11.5   886.2    0.00     882     83.8
 241   12:00   86.3     9    4.3   290      8.7   886.2    0.00     882     84.2
 241   12:10   86.5     9    5.2   301     11.8   886.2    0.00     879     84.7
 241   12:20   86.6     9    6.5   271     11.2   886.1    0.00     873     85.1
 241   12:30   87.4     9    3.6   270     11.4   886.1    0.00     867     85.5
 241   12:40   87.8     8    5.7   253     11.8   886.0    0.00     859     85.9
 241   12:50   87.9     9    3.3   223      8.2   885.9    0.00     848     86.3
 241   13:00   87.9     8    6.8   312     11.8   885.8    0.00     840     86.7
 241   13:10   88.2     8    4.7   350      7.4   885.6    0.00     826     87.1
 241   13:20   89.1     8    3.9   209      8.8   885.6    0.00     813     87.5
 241   13:30   89.6     8    3.3   153     11.6   885.4    0.00     797     87.9
 241   13:40   89.2     8    6.3   273     13.4   885.2    0.00     783     88.2
 241   13:50   89.9     8    4.1   165     10.9   885.1    0.00     760     88.6
 241   14:00   91.0     8    8.1   219     16.2   884.9    0.00     742     89.0
 241   14:10   90.8     8    6.3   172     11.0   884.8    0.00     720     89.3
 241   14:20   91.8     8    3.8   226      9.1   884.7    0.00     700     89.6
 241   14:30   91.0     8    9.7   272     16.5   884.5    0.00     677     89.8
 241   14:40   90.2     8    6.1   289     11.7   884.5    0.00     654     90.0
 241   14:50   91.0     8    5.9   243     10.4   884.5    0.00     626     90.2
 241   15:00   91.0     8    7.4   278     13.6   884.4    0.00     600     90.3
 241   15:10   91.5     8    6.3   218     13.9   884.3    0.00     572     90.4
 241   15:20   90.9     8   10.5   238     16.8   884.3    0.00     545     90.4
 241   15:30   90.7     8    4.7   305     11.4   884.3    0.00     517     90.4
 241   15:40   91.6     8    7.2   215     12.2   884.2    0.00     485     90.5
 241   15:50   92.1     8    6.7   188     11.0   884.1    0.00     455     90.4
 241   16:00   92.9     8    4.4   200      8.0   884.1    0.00     426     90.5
 241   16:10   92.0     8    5.5   189      8.8   884.0    0.00     397     90.5
 241   16:20   91.7     8    3.9   198      7.7   883.9    0.00     365     90.5
 241   16:30   91.8     8    2.9   262      5.8   883.9    0.00     336     90.6
 241   16:40   92.8     8    2.6   204      6.6   883.8    0.00     305     90.6
 241   16:50   92.3     8    1.9   251      4.7   883.7    0.00     275     90.7
 241   17:00   93.2     8    2.0   287      4.2   883.7    0.00     245     90.7
 241   17:10   91.8     8    2.8   216      7.0   883.7    0.00     215     90.7
 241   17:20   91.6     8    3.1   162      6.6   883.6    0.00     184     90.8
 241   17:30   92.0     8    1.9   261      4.4   883.6    0.00     155     90.8
 241   17:40   91.3     8    1.9   245      5.2   883.6    0.00     126     90.8
 241   17:50   91.1     8    1.4     2      4.8   883.6    0.00      92     90.8
 241   18:00   90.6     8    3.5   332      5.8   883.6    0.00      59     90.7
 241   18:10   89.9     8    3.4   337      4.7   883.6    0.00      34     90.6
 241   18:20   88.7     9    4.6   353      6.1   883.7    0.00      17     90.6
 241   18:30   87.8     9    4.0     3      5.0   883.8    0.00       8     90.6
 241   18:40   87.5     9    3.0    36      3.9   883.9    0.00       3     90.4
 241   18:50   87.2     9    2.7    41      3.5   884.0    0.00       1     90.4
 241   19:00   87.1     9    1.6    38      2.9   884.0    0.00       0     90.3
 241   19:10   86.6     9    1.9    45      2.9   884.1    0.00       0     90.2
 241   19:20   86.6     9    2.2    56      4.6   884.2    0.00       0     90.0
 241   19:30   85.7    10    1.5    58      2.0   884.2    0.00       0     89.9
 241   19:40   84.8    10    2.7    21      4.5   884.3    0.00       0     89.7
 241   19:50   81.7    10    3.3     4      3.9   884.4    0.00       0     89.5
 241   20:00   79.5    12    3.2   360      4.8   884.5    0.00       0     89.4
 241   20:10   79.3    12    3.2    26      4.2   884.4    0.00       0     89.2
 241   20:20   79.0    12    3.3    65      5.5   884.5    0.00       0     89.0
 241   20:30   76.9    13    3.7    10      5.0   884.7    0.00       0     88.8
 241   20:40   76.2    12    7.7   355     11.4   884.8    0.00       0     88.6
 241   20:50   76.1    11    9.4    17     11.2   884.8    0.00       0     88.4
 241   21:00   75.6    12    7.2    37      9.1   884.8    0.00       0     88.2
 241   21:10   74.2    12    6.1    37      7.5   884.9    0.00       0     88.0
 241   21:20   73.6    12    4.9    35      6.3   884.9    0.00       0     87.8
 241   21:30   73.4    12    4.8    17      7.1   885.0    0.00       0     87.6
 241   21:40   75.2    12    2.9   271      5.6   885.1    0.00       0     87.3
 241   21:50   76.9    11    1.3    18      2.0   885.1    0.00       0     87.2
 241   22:00   75.5    11    5.0   318     12.1   885.3    0.00       0     87.0
 241   22:10   77.5    11    2.6   350      5.2   885.4    0.00       0     86.8
 241   22:20   75.9    11    2.5    26      3.6   885.4    0.00       0     86.6
 241   22:30   76.0    11    2.1    32      3.4   885.5    0.00       0     86.4
 241   22:40   74.3    12    3.4    55      4.9   885.5    0.00       0     86.2
 241   22:50   71.6    14    2.9    63      4.8   885.5    0.00       0     86.0
 241   23:00   71.7    13    0.9    51      2.9   885.4    0.00       0     85.7
 241   23:10   72.3    13    1.0   323      2.5   885.5    0.00       0     85.6
 241   23:20   71.7    13    2.3   162      3.4   885.5    0.00       0     85.4
 241   23:30   70.1    14    4.1   141      6.5   885.7    0.00       0     85.2
 241   23:40   69.0    15    6.7    81     11.0   885.7    0.00       0     85.0
 241   23:50   69.1    14    6.7    83     10.8   885.8    0.00       0     84.8
 242    0:00   68.0    15    6.1    91      9.0   885.9    0.00       0     84.6
 242    0:10   66.2    17    4.3   132      5.1   885.9    0.00       0     84.4
 242    0:20   66.6    17    4.9   167      5.9   886.0    0.00       0     84.2

Return to Carson Sink graphs page.


Western Regional Climate Center,wrcc@dri.edu